sensor_id;sensor_type;location;lat;lon;timestamp;temperature;humidity
75621;DHT22;64208;48.506;-2.750;2022-10-16T00:01:20;16.40;70.00
75621;DHT22;64208;48.506;-2.750;2022-10-16T00:03:47;16.40;70.00
75621;DHT22;64208;48.506;-2.750;2022-10-16T00:06:14;16.40;70.00
75621;DHT22;64208;48.506;-2.750;2022-10-16T00:08:40;16.40;70.00
75621;DHT22;64208;48.506;-2.750;2022-10-16T00:13:38;16.40;70.00
75621;DHT22;64208;48.506;-2.750;2022-10-16T00:16:04;16.40;70.00
75621;DHT22;64208;48.506;-2.750;2022-10-16T00:18:30;16.40;70.00
75621;DHT22;64208;48.506;-2.750;2022-10-16T00:21:02;16.40;69.90
75621;DHT22;64208;48.506;-2.750;2022-10-16T00:23:28;16.40;70.00
75621;DHT22;64208;48.506;-2.750;2022-10-16T00:25:56;16.40;69.90
75621;DHT22;64208;48.506;-2.750;2022-10-16T00:28:22;16.40;69.90
75621;DHT22;64208;48.506;-2.750;2022-10-16T00:30:48;16.40;69.90
75621;DHT22;64208;48.506;-2.750;2022-10-16T00:33:13;16.40;69.90
75621;DHT22;64208;48.506;-2.750;2022-10-16T00:35:39;16.40;70.00
75621;DHT22;64208;48.506;-2.750;2022-10-16T00:38:04;16.30;70.00
75621;DHT22;64208;48.506;-2.750;2022-10-16T00:40:30;16.30;70.10
75621;DHT22;64208;48.506;-2.750;2022-10-16T00:42:57;16.30;70.10
75621;DHT22;64208;48.506;-2.750;2022-10-16T00:45:23;16.40;70.10
75621;DHT22;64208;48.506;-2.750;2022-10-16T00:47:50;16.30;70.10
75621;DHT22;64208;48.506;-2.750;2022-10-16T00:50:32;16.30;70.10
75621;DHT22;64208;48.506;-2.750;2022-10-16T00:52:59;16.30;70.20
75621;DHT22;64208;48.506;-2.750;2022-10-16T00:55:26;16.30;70.30
75621;DHT22;64208;48.506;-2.750;2022-10-16T00:57:54;16.20;70.30
75621;DHT22;64208;48.506;-2.750;2022-10-16T01:00:23;16.30;70.30
75621;DHT22;64208;48.506;-2.750;2022-10-16T01:02:57;16.20;70.30
75621;DHT22;64208;48.506;-2.750;2022-10-16T01:05:35;16.30;70.30
75621;DHT22;64208;48.506;-2.750;2022-10-16T01:08:17;16.20;70.40
75621;DHT22;64208;48.506;-2.750;2022-10-16T01:10:46;16.20;70.40
75621;DHT22;64208;48.506;-2.750;2022-10-16T01:13:33;16.20;70.50
75621;DHT22;64208;48.506;-2.750;2022-10-16T01:16:16;16.20;70.50
75621;DHT22;64208;48.506;-2.750;2022-10-16T01:18:46;16.20;70.50
75621;DHT22;64208;48.506;-2.750;2022-10-16T01:30:11;16.20;70.70
75621;DHT22;64208;48.506;-2.750;2022-10-16T01:32:46;16.20;70.70
75621;DHT22;64208;48.506;-2.750;2022-10-16T01:37:48;16.20;70.70
75621;DHT22;64208;48.506;-2.750;2022-10-16T01:40:18;16.20;70.70
75621;DHT22;64208;48.506;-2.750;2022-10-16T01:42:56;16.20;70.70
75621;DHT22;64208;48.506;-2.750;2022-10-16T01:45:24;16.10;70.70
75621;DHT22;64208;48.506;-2.750;2022-10-16T01:47:51;16.20;70.70
75621;DHT22;64208;48.506;-2.750;2022-10-16T01:50:19;16.20;70.70
75621;DHT22;64208;48.506;-2.750;2022-10-16T01:52:49;16.20;70.70
75621;DHT22;64208;48.506;-2.750;2022-10-16T01:55:25;16.20;70.70
75621;DHT22;64208;48.506;-2.750;2022-10-16T01:57:53;16.20;70.70
75621;DHT22;64208;48.506;-2.750;2022-10-16T02:00:21;16.20;70.70
75621;DHT22;64208;48.506;-2.750;2022-10-16T02:02:50;16.10;70.70
75621;DHT22;64208;48.506;-2.750;2022-10-16T02:05:32;16.10;70.80
75621;DHT22;64208;48.506;-2.750;2022-10-16T02:07:59;16.10;70.80
75621;DHT22;64208;48.506;-2.750;2022-10-16T02:10:25;16.10;70.80
75621;DHT22;64208;48.506;-2.750;2022-10-16T02:13:46;16.10;70.80
75621;DHT22;64208;48.506;-2.750;2022-10-16T02:15:45;16.10;70.80
75621;DHT22;64208;48.506;-2.750;2022-10-16T02:18:11;16.10;70.80
75621;DHT22;64208;48.506;-2.750;2022-10-16T02:20:46;16.10;70.80
75621;DHT22;64208;48.506;-2.750;2022-10-16T02:23:19;16.10;70.80
75621;DHT22;64208;48.506;-2.750;2022-10-16T02:25:47;16.10;70.80
75621;DHT22;64208;48.506;-2.750;2022-10-16T02:28:28;16.10;70.80
75621;DHT22;64208;48.506;-2.750;2022-10-16T02:31:00;16.10;70.90
75621;DHT22;64208;48.506;-2.750;2022-10-16T02:33:27;16.10;70.90
75621;DHT22;64208;48.506;-2.750;2022-10-16T02:35:55;16.10;70.90
75621;DHT22;64208;48.506;-2.750;2022-10-16T02:38:21;16.10;70.90
75621;DHT22;64208;48.506;-2.750;2022-10-16T02:40:48;16.10;70.90
75621;DHT22;64208;48.506;-2.750;2022-10-16T02:43:13;16.10;70.90
75621;DHT22;64208;48.506;-2.750;2022-10-16T02:45:39;16.10;70.90
75621;DHT22;64208;48.506;-2.750;2022-10-16T02:48:05;16.10;70.90
75621;DHT22;64208;48.506;-2.750;2022-10-16T02:50:31;16.10;71.00
75621;DHT22;64208;48.506;-2.750;2022-10-16T02:52:56;16.10;71.00
75621;DHT22;64208;48.506;-2.750;2022-10-16T02:55:22;16.00;71.00
75621;DHT22;64208;48.506;-2.750;2022-10-16T02:57:48;16.10;70.90
75621;DHT22;64208;48.506;-2.750;2022-10-16T03:00:15;16.00;71.00
75621;DHT22;64208;48.506;-2.750;2022-10-16T03:02:41;16.00;71.00
75621;DHT22;64208;48.506;-2.750;2022-10-16T03:05:07;16.00;71.00
75621;DHT22;64208;48.506;-2.750;2022-10-16T03:07:33;16.00;71.00
75621;DHT22;64208;48.506;-2.750;2022-10-16T03:09:59;16.00;71.00
75621;DHT22;64208;48.506;-2.750;2022-10-16T03:12:28;16.00;71.10
75621;DHT22;64208;48.506;-2.750;2022-10-16T03:14:54;16.00;71.10
75621;DHT22;64208;48.506;-2.750;2022-10-16T03:17:20;16.00;71.10
75621;DHT22;64208;48.506;-2.750;2022-10-16T03:19:46;16.00;71.10
75621;DHT22;64208;48.506;-2.750;2022-10-16T03:22:11;16.00;71.10
75621;DHT22;64208;48.506;-2.750;2022-10-16T03:24:37;16.00;71.20
75621;DHT22;64208;48.506;-2.750;2022-10-16T03:27:02;16.00;71.20
75621;DHT22;64208;48.506;-2.750;2022-10-16T03:29:28;16.00;71.10
75621;DHT22;64208;48.506;-2.750;2022-10-16T03:31:55;16.00;71.10
75621;DHT22;64208;48.506;-2.750;2022-10-16T03:34:21;16.00;71.10
75621;DHT22;64208;48.506;-2.750;2022-10-16T03:36:47;16.00;71.20
75621;DHT22;64208;48.506;-2.750;2022-10-16T03:39:13;16.00;71.20
75621;DHT22;64208;48.506;-2.750;2022-10-16T03:41:38;16.00;71.20
75621;DHT22;64208;48.506;-2.750;2022-10-16T03:44:04;16.00;71.20
75621;DHT22;64208;48.506;-2.750;2022-10-16T03:46:30;16.00;71.20
75621;DHT22;64208;48.506;-2.750;2022-10-16T03:48:55;16.00;71.20
75621;DHT22;64208;48.506;-2.750;2022-10-16T03:51:21;16.00;71.20
75621;DHT22;64208;48.506;-2.750;2022-10-16T03:53:47;16.00;71.20
75621;DHT22;64208;48.506;-2.750;2022-10-16T03:56:12;16.00;71.30
75621;DHT22;64208;48.506;-2.750;2022-10-16T03:58:38;16.00;71.30
75621;DHT22;64208;48.506;-2.750;2022-10-16T04:01:04;15.90;71.30
75621;DHT22;64208;48.506;-2.750;2022-10-16T04:03:32;15.90;71.30
75621;DHT22;64208;48.506;-2.750;2022-10-16T04:05:58;15.90;71.40
75621;DHT22;64208;48.506;-2.750;2022-10-16T04:08:24;15.90;71.40
75621;DHT22;64208;48.506;-2.750;2022-10-16T04:10:49;15.90;71.40
75621;DHT22;64208;48.506;-2.750;2022-10-16T04:13:15;15.90;71.40
75621;DHT22;64208;48.506;-2.750;2022-10-16T04:15:41;15.90;71.40
75621;DHT22;64208;48.506;-2.750;2022-10-16T04:18:07;15.80;71.40
75621;DHT22;64208;48.506;-2.750;2022-10-16T04:20:33;15.80;71.50
75621;DHT22;64208;48.506;-2.750;2022-10-16T04:22:59;15.80;71.50
75621;DHT22;64208;48.506;-2.750;2022-10-16T04:25:24;15.80;71.40
75621;DHT22;64208;48.506;-2.750;2022-10-16T04:27:52;15.80;71.50
75621;DHT22;64208;48.506;-2.750;2022-10-16T04:30:18;15.80;71.50
75621;DHT22;64208;48.506;-2.750;2022-10-16T04:32:48;15.80;71.50
75621;DHT22;64208;48.506;-2.750;2022-10-16T04:35:14;15.80;71.50
75621;DHT22;64208;48.506;-2.750;2022-10-16T04:37:40;15.80;71.50
75621;DHT22;64208;48.506;-2.750;2022-10-16T04:40:06;15.80;71.50
75621;DHT22;64208;48.506;-2.750;2022-10-16T04:42:32;15.80;71.60
75621;DHT22;64208;48.506;-2.750;2022-10-16T04:44:57;15.80;71.50
75621;DHT22;64208;48.506;-2.750;2022-10-16T04:47:23;15.80;71.50
75621;DHT22;64208;48.506;-2.750;2022-10-16T04:49:48;15.80;71.50
75621;DHT22;64208;48.506;-2.750;2022-10-16T04:52:14;15.80;71.50
75621;DHT22;64208;48.506;-2.750;2022-10-16T04:54:40;15.80;71.60
75621;DHT22;64208;48.506;-2.750;2022-10-16T04:57:06;15.80;71.60
75621;DHT22;64208;48.506;-2.750;2022-10-16T04:59:31;15.80;71.60
75621;DHT22;64208;48.506;-2.750;2022-10-16T05:01:57;15.80;71.60
75621;DHT22;64208;48.506;-2.750;2022-10-16T05:04:23;15.80;71.60
75621;DHT22;64208;48.506;-2.750;2022-10-16T05:06:48;15.80;71.60
75621;DHT22;64208;48.506;-2.750;2022-10-16T05:09:14;15.80;71.50
75621;DHT22;64208;48.506;-2.750;2022-10-16T05:11:40;15.80;71.60
75621;DHT22;64208;48.506;-2.750;2022-10-16T05:14:05;15.90;71.50
75621;DHT22;64208;48.506;-2.750;2022-10-16T05:16:31;15.80;71.70
75621;DHT22;64208;48.506;-2.750;2022-10-16T05:18:56;15.80;71.90
75621;DHT22;64208;48.506;-2.750;2022-10-16T05:21:22;15.80;71.90
75621;DHT22;64208;48.506;-2.750;2022-10-16T05:23:48;15.80;72.00
75621;DHT22;64208;48.506;-2.750;2022-10-16T05:26:13;15.80;72.00
75621;DHT22;64208;48.506;-2.750;2022-10-16T05:28:39;15.80;71.90
75621;DHT22;64208;48.506;-2.750;2022-10-16T05:31:09;15.80;72.00
75621;DHT22;64208;48.506;-2.750;2022-10-16T05:33:34;15.80;72.10
75621;DHT22;64208;48.506;-2.750;2022-10-16T05:36:05;15.80;72.10
75621;DHT22;64208;48.506;-2.750;2022-10-16T05:38:31;15.80;72.10
75621;DHT22;64208;48.506;-2.750;2022-10-16T05:40:57;15.80;72.00
75621;DHT22;64208;48.506;-2.750;2022-10-16T05:43:23;15.80;72.10
75621;DHT22;64208;48.506;-2.750;2022-10-16T05:48:21;15.80;72.00
75621;DHT22;64208;48.506;-2.750;2022-10-16T05:50:47;15.80;72.00
75621;DHT22;64208;48.506;-2.750;2022-10-16T05:53:13;15.80;71.90
75621;DHT22;64208;48.506;-2.750;2022-10-16T05:55:38;15.80;71.90
75621;DHT22;64208;48.506;-2.750;2022-10-16T05:58:04;15.80;71.90
75621;DHT22;64208;48.506;-2.750;2022-10-16T06:00:30;15.80;71.90
75621;DHT22;64208;48.506;-2.750;2022-10-16T06:02:55;15.80;71.90
75621;DHT22;64208;48.506;-2.750;2022-10-16T06:05:21;16.00;71.80
75621;DHT22;64208;48.506;-2.750;2022-10-16T06:07:46;16.00;71.80
75621;DHT22;64208;48.506;-2.750;2022-10-16T06:10:12;16.00;71.90
75621;DHT22;64208;48.506;-2.750;2022-10-16T06:12:37;16.00;71.90
75621;DHT22;64208;48.506;-2.750;2022-10-16T06:15:04;16.00;71.80
75621;DHT22;64208;48.506;-2.750;2022-10-16T06:17:29;16.00;71.80
75621;DHT22;64208;48.506;-2.750;2022-10-16T06:19:55;16.00;71.80
75621;DHT22;64208;48.506;-2.750;2022-10-16T06:22:21;16.00;71.80
75621;DHT22;64208;48.506;-2.750;2022-10-16T06:24:46;16.00;71.80
75621;DHT22;64208;48.506;-2.750;2022-10-16T06:27:12;16.00;71.80
75621;DHT22;64208;48.506;-2.750;2022-10-16T06:29:38;16.00;71.80
75621;DHT22;64208;48.506;-2.750;2022-10-16T06:32:04;16.00;71.70
75621;DHT22;64208;48.506;-2.750;2022-10-16T06:34:29;16.00;71.70
75621;DHT22;64208;48.506;-2.750;2022-10-16T06:36:55;16.00;71.60
75621;DHT22;64208;48.506;-2.750;2022-10-16T06:39:21;16.00;71.60
75621;DHT22;64208;48.506;-2.750;2022-10-16T06:41:46;16.00;71.50
75621;DHT22;64208;48.506;-2.750;2022-10-16T06:44:12;16.00;71.50
75621;DHT22;64208;48.506;-2.750;2022-10-16T06:46:38;16.00;71.50
75621;DHT22;64208;48.506;-2.750;2022-10-16T06:49:03;16.00;71.40
75621;DHT22;64208;48.506;-2.750;2022-10-16T06:51:29;16.00;71.40
75621;DHT22;64208;48.506;-2.750;2022-10-16T06:53:56;16.00;71.20
75621;DHT22;64208;48.506;-2.750;2022-10-16T06:56:24;16.00;71.20
75621;DHT22;64208;48.506;-2.750;2022-10-16T06:58:51;16.00;71.10
75621;DHT22;64208;48.506;-2.750;2022-10-16T07:01:19;16.00;71.10
75621;DHT22;64208;48.506;-2.750;2022-10-16T07:03:46;16.00;71.10
75621;DHT22;64208;48.506;-2.750;2022-10-16T07:06:17;16.00;71.00
75621;DHT22;64208;48.506;-2.750;2022-10-16T07:08:44;16.00;71.00
75621;DHT22;64208;48.506;-2.750;2022-10-16T07:11:13;16.00;70.90
75621;DHT22;64208;48.506;-2.750;2022-10-16T07:13:41;16.00;70.90
75621;DHT22;64208;48.506;-2.750;2022-10-16T07:16:12;16.00;70.90
75621;DHT22;64208;48.506;-2.750;2022-10-16T07:18:37;16.00;70.80
75621;DHT22;64208;48.506;-2.750;2022-10-16T07:21:10;16.00;70.80
75621;DHT22;64208;48.506;-2.750;2022-10-16T07:23:37;16.00;70.80
75621;DHT22;64208;48.506;-2.750;2022-10-16T07:26:03;16.00;70.70
75621;DHT22;64208;48.506;-2.750;2022-10-16T07:28:29;16.00;70.70
75621;DHT22;64208;48.506;-2.750;2022-10-16T07:30:55;16.00;70.70
75621;DHT22;64208;48.506;-2.750;2022-10-16T07:33:21;16.00;70.60
75621;DHT22;64208;48.506;-2.750;2022-10-16T07:35:51;16.00;70.60
75621;DHT22;64208;48.506;-2.750;2022-10-16T07:38:17;16.00;70.60
75621;DHT22;64208;48.506;-2.750;2022-10-16T07:40:43;16.00;70.50
75621;DHT22;64208;48.506;-2.750;2022-10-16T07:43:09;16.00;70.50
75621;DHT22;64208;48.506;-2.750;2022-10-16T07:45:35;16.10;70.50
75621;DHT22;64208;48.506;-2.750;2022-10-16T07:48:01;16.10;70.50
75621;DHT22;64208;48.506;-2.750;2022-10-16T07:50:26;16.10;70.40
75621;DHT22;64208;48.506;-2.750;2022-10-16T07:52:52;16.10;70.40
75621;DHT22;64208;48.506;-2.750;2022-10-16T07:55:17;16.10;70.40
75621;DHT22;64208;48.506;-2.750;2022-10-16T07:57:43;16.10;70.30
75621;DHT22;64208;48.506;-2.750;2022-10-16T08:00:09;16.10;70.30
75621;DHT22;64208;48.506;-2.750;2022-10-16T08:02:42;16.10;70.30
75621;DHT22;64208;48.506;-2.750;2022-10-16T08:05:08;16.10;70.20
75621;DHT22;64208;48.506;-2.750;2022-10-16T08:07:33;16.10;70.30
75621;DHT22;64208;48.506;-2.750;2022-10-16T08:09:59;16.10;70.20
75621;DHT22;64208;48.506;-2.750;2022-10-16T08:12:26;16.10;70.20
75621;DHT22;64208;48.506;-2.750;2022-10-16T08:14:51;16.20;70.20
75621;DHT22;64208;48.506;-2.750;2022-10-16T08:17:17;16.10;70.20
75621;DHT22;64208;48.506;-2.750;2022-10-16T08:19:46;16.10;70.10
75621;DHT22;64208;48.506;-2.750;2022-10-16T08:22:13;16.20;70.10
75621;DHT22;64208;48.506;-2.750;2022-10-16T08:24:39;16.20;70.10
75621;DHT22;64208;48.506;-2.750;2022-10-16T08:27:05;16.20;70.00
75621;DHT22;64208;48.506;-2.750;2022-10-16T08:29:31;16.20;70.00
75621;DHT22;64208;48.506;-2.750;2022-10-16T08:31:56;16.20;70.00
75621;DHT22;64208;48.506;-2.750;2022-10-16T08:34:22;16.20;69.90
75621;DHT22;64208;48.506;-2.750;2022-10-16T08:36:48;16.20;69.80
75621;DHT22;64208;48.506;-2.750;2022-10-16T08:39:13;16.20;69.90
75621;DHT22;64208;48.506;-2.750;2022-10-16T08:49:23;16.30;69.80
75621;DHT22;64208;48.506;-2.750;2022-10-16T08:51:50;16.30;69.70
75621;DHT22;64208;48.506;-2.750;2022-10-16T08:54:29;16.30;69.80
75621;DHT22;64208;48.506;-2.750;2022-10-16T08:56:57;16.30;69.80
75621;DHT22;64208;48.506;-2.750;2022-10-16T08:59:26;16.40;69.60
75621;DHT22;64208;48.506;-2.750;2022-10-16T09:01:52;16.40;69.70
75621;DHT22;64208;48.506;-2.750;2022-10-16T09:04:43;16.40;69.70
75621;DHT22;64208;48.506;-2.750;2022-10-16T09:23:28;16.40;69.50
75621;DHT22;64208;48.506;-2.750;2022-10-16T09:25:55;16.40;69.50
75621;DHT22;64208;48.506;-2.750;2022-10-16T09:28:21;16.40;69.40
75621;DHT22;64208;48.506;-2.750;2022-10-16T09:30:47;16.40;69.30
75621;DHT22;64208;48.506;-2.750;2022-10-16T09:33:21;16.40;69.40
75621;DHT22;64208;48.506;-2.750;2022-10-16T09:35:50;16.40;69.50
75621;DHT22;64208;48.506;-2.750;2022-10-16T09:38:29;16.40;69.50
75621;DHT22;64208;48.506;-2.750;2022-10-16T09:41:03;16.40;69.50
75621;DHT22;64208;48.506;-2.750;2022-10-16T09:43:40;16.40;69.40
75621;DHT22;64208;48.506;-2.750;2022-10-16T09:46:09;16.40;69.40
75621;DHT22;64208;48.506;-2.750;2022-10-16T09:48:48;16.40;69.40
75621;DHT22;64208;48.506;-2.750;2022-10-16T09:53:55;16.40;69.30
75621;DHT22;64208;48.506;-2.750;2022-10-16T09:56:29;16.40;69.30
75621;DHT22;64208;48.506;-2.750;2022-10-16T09:58:57;16.40;69.40
75621;DHT22;64208;48.506;-2.750;2022-10-16T10:01:36;16.40;69.30
75621;DHT22;64208;48.506;-2.750;2022-10-16T10:04:03;16.40;69.30
75621;DHT22;64208;48.506;-2.750;2022-10-16T10:06:33;16.40;69.30
75621;DHT22;64208;48.506;-2.750;2022-10-16T10:09:05;16.40;69.40
75621;DHT22;64208;48.506;-2.750;2022-10-16T10:11:47;16.40;69.40
75621;DHT22;64208;48.506;-2.750;2022-10-16T10:14:44;16.40;69.40
75621;DHT22;64208;48.506;-2.750;2022-10-16T10:17:23;16.50;69.40
75621;DHT22;64208;48.506;-2.750;2022-10-16T10:35:44;16.60;69.40
75621;DHT22;64208;48.506;-2.750;2022-10-16T10:43:32;16.60;69.40
75621;DHT22;64208;48.506;-2.750;2022-10-16T10:46:05;16.60;69.50
75621;DHT22;64208;48.506;-2.750;2022-10-16T11:07:32;16.60;69.90
75621;DHT22;64208;48.506;-2.750;2022-10-16T11:10:13;16.60;69.90
75621;DHT22;64208;48.506;-2.750;2022-10-16T11:12:44;16.70;69.70
75621;DHT22;64208;48.506;-2.750;2022-10-16T11:15:19;16.60;69.90
75621;DHT22;64208;48.506;-2.750;2022-10-16T11:18:08;16.60;69.90
75621;DHT22;64208;48.506;-2.750;2022-10-16T11:20:47;16.70;69.90
75621;DHT22;64208;48.506;-2.750;2022-10-16T11:23:30;16.60;69.90
75621;DHT22;64208;48.506;-2.750;2022-10-16T11:26:00;16.70;69.80
75621;DHT22;64208;48.506;-2.750;2022-10-16T11:31:14;16.70;69.80
75621;DHT22;64208;48.506;-2.750;2022-10-16T11:33:56;16.70;69.90
75621;DHT22;64208;48.506;-2.750;2022-10-16T11:39:11;16.70;69.90
75621;DHT22;64208;48.506;-2.750;2022-10-16T11:41:49;16.80;69.90
75621;DHT22;64208;48.506;-2.750;2022-10-16T11:49:44;16.80;69.80
75621;DHT22;64208;48.506;-2.750;2022-10-16T11:52:15;16.80;69.60
75621;DHT22;64208;48.506;-2.750;2022-10-16T11:54:56;16.70;69.80
75621;DHT22;64208;48.506;-2.750;2022-10-16T11:57:27;16.70;69.90
75621;DHT22;64208;48.506;-2.750;2022-10-16T12:00:02;16.70;69.90
75621;DHT22;64208;48.506;-2.750;2022-10-16T12:07:41;16.70;69.90
75621;DHT22;64208;48.506;-2.750;2022-10-16T12:10:24;16.70;70.00
75621;DHT22;64208;48.506;-2.750;2022-10-16T12:12:50;16.70;70.00
75621;DHT22;64208;48.506;-2.750;2022-10-16T12:15:25;16.80;70.00
75621;DHT22;64208;48.506;-2.750;2022-10-16T12:17:51;16.80;70.10
75621;DHT22;64208;48.506;-2.750;2022-10-16T12:22:56;16.80;70.00
75621;DHT22;64208;48.506;-2.750;2022-10-16T12:25:54;16.80;70.30
75621;DHT22;64208;48.506;-2.750;2022-10-16T12:28:22;16.80;70.00
75621;DHT22;64208;48.506;-2.750;2022-10-16T12:31:02;16.80;70.10
75621;DHT22;64208;48.506;-2.750;2022-10-16T12:33:33;16.80;70.00
75621;DHT22;64208;48.506;-2.750;2022-10-16T12:36:03;16.80;70.10
75621;DHT22;64208;48.506;-2.750;2022-10-16T12:38:48;16.80;70.20
75621;DHT22;64208;48.506;-2.750;2022-10-16T12:43:50;16.80;70.20
75621;DHT22;64208;48.506;-2.750;2022-10-16T12:48:43;16.90;70.30
75621;DHT22;64208;48.506;-2.750;2022-10-16T12:53:58;16.90;70.10
75621;DHT22;64208;48.506;-2.750;2022-10-16T12:56:31;16.90;70.10
75621;DHT22;64208;48.506;-2.750;2022-10-16T13:12:50;16.90;70.70
75621;DHT22;64208;48.506;-2.750;2022-10-16T13:20:35;16.90;70.60
75621;DHT22;64208;48.506;-2.750;2022-10-16T13:23:13;16.90;70.70
75621;DHT22;64208;48.506;-2.750;2022-10-16T13:26:42;16.90;70.60
75621;DHT22;64208;48.506;-2.750;2022-10-16T13:28:48;17.00;70.60
75621;DHT22;64208;48.506;-2.750;2022-10-16T13:31:24;17.00;70.50
75621;DHT22;64208;48.506;-2.750;2022-10-16T13:33:53;17.00;70.50
75621;DHT22;64208;48.506;-2.750;2022-10-16T13:36:22;17.00;70.50
75621;DHT22;64208;48.506;-2.750;2022-10-16T13:38:49;17.00;70.50
75621;DHT22;64208;48.506;-2.750;2022-10-16T13:41:25;17.00;70.50
75621;DHT22;64208;48.506;-2.750;2022-10-16T13:43:52;17.00;70.50
75621;DHT22;64208;48.506;-2.750;2022-10-16T13:46:21;17.00;70.40
75621;DHT22;64208;48.506;-2.750;2022-10-16T13:49:00;17.00;70.50
75621;DHT22;64208;48.506;-2.750;2022-10-16T13:51:29;17.00;70.50
75621;DHT22;64208;48.506;-2.750;2022-10-16T13:53:56;17.00;70.40
75621;DHT22;64208;48.506;-2.750;2022-10-16T13:56:26;17.00;70.40
75621;DHT22;64208;48.506;-2.750;2022-10-16T13:59:32;17.00;70.40
75621;DHT22;64208;48.506;-2.750;2022-10-16T14:01:54;17.00;70.40
75621;DHT22;64208;48.506;-2.750;2022-10-16T14:04:21;17.00;70.50
75621;DHT22;64208;48.506;-2.750;2022-10-16T14:06:50;17.00;70.40
75621;DHT22;64208;48.506;-2.750;2022-10-16T14:09:29;17.00;70.50
75621;DHT22;64208;48.506;-2.750;2022-10-16T14:11:59;17.00;70.50
75621;DHT22;64208;48.506;-2.750;2022-10-16T14:14:28;17.10;70.50
75621;DHT22;64208;48.506;-2.750;2022-10-16T14:16:56;17.10;70.40
75621;DHT22;64208;48.506;-2.750;2022-10-16T14:19:25;17.20;70.40
75621;DHT22;64208;48.506;-2.750;2022-10-16T14:21:53;17.20;70.30
75621;DHT22;64208;48.506;-2.750;2022-10-16T14:24:48;17.20;70.30
75621;DHT22;64208;48.506;-2.750;2022-10-16T14:27:42;17.20;70.40
75621;DHT22;64208;48.506;-2.750;2022-10-16T14:30:11;17.20;70.30
75621;DHT22;64208;48.506;-2.750;2022-10-16T14:32:41;17.20;70.20
75621;DHT22;64208;48.506;-2.750;2022-10-16T14:35:27;17.20;70.30
75621;DHT22;64208;48.506;-2.750;2022-10-16T14:37:54;17.20;70.30
75621;DHT22;64208;48.506;-2.750;2022-10-16T14:40:24;17.20;70.20
75621;DHT22;64208;48.506;-2.750;2022-10-16T14:42:50;17.20;70.30
75621;DHT22;64208;48.506;-2.750;2022-10-16T14:45:26;17.20;70.30
75621;DHT22;64208;48.506;-2.750;2022-10-16T14:47:54;17.20;70.30
75621;DHT22;64208;48.506;-2.750;2022-10-16T14:50:21;17.20;70.40
75621;DHT22;64208;48.506;-2.750;2022-10-16T14:52:47;17.20;70.40
75621;DHT22;64208;48.506;-2.750;2022-10-16T14:55:13;17.20;70.40
75621;DHT22;64208;48.506;-2.750;2022-10-16T14:57:39;17.20;70.40
75621;DHT22;64208;48.506;-2.750;2022-10-16T15:02:39;17.20;70.40
75621;DHT22;64208;48.506;-2.750;2022-10-16T15:05:26;17.20;70.40
75621;DHT22;64208;48.506;-2.750;2022-10-16T15:07:53;17.20;70.40
75621;DHT22;64208;48.506;-2.750;2022-10-16T15:10:24;17.20;70.30
75621;DHT22;64208;48.506;-2.750;2022-10-16T15:12:50;17.20;70.40
75621;DHT22;64208;48.506;-2.750;2022-10-16T15:15:48;17.20;70.40
75621;DHT22;64208;48.506;-2.750;2022-10-16T15:18:14;17.20;70.40
75621;DHT22;64208;48.506;-2.750;2022-10-16T15:20:47;17.20;70.40
75621;DHT22;64208;48.506;-2.750;2022-10-16T15:23:18;17.30;70.40
75621;DHT22;64208;48.506;-2.750;2022-10-16T15:25:49;17.20;70.40
75621;DHT22;64208;48.506;-2.750;2022-10-16T15:28:17;17.20;70.50
75621;DHT22;64208;48.506;-2.750;2022-10-16T15:30:42;17.20;70.50
75621;DHT22;64208;48.506;-2.750;2022-10-16T15:33:18;17.20;70.60
75621;DHT22;64208;48.506;-2.750;2022-10-16T15:35:47;17.20;70.50
75621;DHT22;64208;48.506;-2.750;2022-10-16T15:38:13;17.20;70.50
75621;DHT22;64208;48.506;-2.750;2022-10-16T15:40:40;17.20;70.60
75621;DHT22;64208;48.506;-2.750;2022-10-16T15:43:05;17.20;70.60
75621;DHT22;64208;48.506;-2.750;2022-10-16T15:45:31;17.20;70.60
75621;DHT22;64208;48.506;-2.750;2022-10-16T15:47:57;17.20;70.70
75621;DHT22;64208;48.506;-2.750;2022-10-16T15:50:22;17.20;70.70
75621;DHT22;64208;48.506;-2.750;2022-10-16T15:52:50;17.20;70.70
75621;DHT22;64208;48.506;-2.750;2022-10-16T15:55:15;17.20;70.70
75621;DHT22;64208;48.506;-2.750;2022-10-16T15:57:42;17.20;70.70
75621;DHT22;64208;48.506;-2.750;2022-10-16T16:00:18;17.20;70.70
75621;DHT22;64208;48.506;-2.750;2022-10-16T16:02:53;17.20;70.70
75621;DHT22;64208;48.506;-2.750;2022-10-16T16:05:20;17.20;70.70
75621;DHT22;64208;48.506;-2.750;2022-10-16T16:07:46;17.20;70.70
75621;DHT22;64208;48.506;-2.750;2022-10-16T16:10:12;17.20;70.70
75621;DHT22;64208;48.506;-2.750;2022-10-16T16:12:38;17.20;70.60
75621;DHT22;64208;48.506;-2.750;2022-10-16T16:15:08;17.20;70.70
75621;DHT22;64208;48.506;-2.750;2022-10-16T16:17:35;17.20;70.80
75621;DHT22;64208;48.506;-2.750;2022-10-16T16:20:02;17.20;70.80
75621;DHT22;64208;48.506;-2.750;2022-10-16T16:22:28;17.20;70.80
75621;DHT22;64208;48.506;-2.750;2022-10-16T16:24:54;17.20;70.80
75621;DHT22;64208;48.506;-2.750;2022-10-16T16:27:19;17.20;70.80
75621;DHT22;64208;48.506;-2.750;2022-10-16T16:29:45;17.20;71.00
75621;DHT22;64208;48.506;-2.750;2022-10-16T16:32:11;17.20;71.20
75621;DHT22;64208;48.506;-2.750;2022-10-16T16:34:37;17.20;71.20
75621;DHT22;64208;48.506;-2.750;2022-10-16T16:37:02;17.20;71.20
75621;DHT22;64208;48.506;-2.750;2022-10-16T16:39:28;17.20;71.30
75621;DHT22;64208;48.506;-2.750;2022-10-16T16:41:55;17.20;71.40
75621;DHT22;64208;48.506;-2.750;2022-10-16T16:44:21;17.20;71.30
75621;DHT22;64208;48.506;-2.750;2022-10-16T16:46:47;17.20;71.50
75621;DHT22;64208;48.506;-2.750;2022-10-16T16:49:13;17.20;71.60
75621;DHT22;64208;48.506;-2.750;2022-10-16T16:51:40;17.30;71.50
75621;DHT22;64208;48.506;-2.750;2022-10-16T16:54:06;17.30;71.70
75621;DHT22;64208;48.506;-2.750;2022-10-16T16:56:33;17.30;71.50
75621;DHT22;64208;48.506;-2.750;2022-10-16T16:58:59;17.30;71.60
75621;DHT22;64208;48.506;-2.750;2022-10-16T17:01:26;17.30;71.50
75621;DHT22;64208;48.506;-2.750;2022-10-16T17:03:54;17.30;71.60
75621;DHT22;64208;48.506;-2.750;2022-10-16T17:06:23;17.30;71.50
75621;DHT22;64208;48.506;-2.750;2022-10-16T17:08:49;17.30;71.60
75621;DHT22;64208;48.506;-2.750;2022-10-16T17:11:21;17.30;71.60
75621;DHT22;64208;48.506;-2.750;2022-10-16T17:13:47;17.30;71.60
75621;DHT22;64208;48.506;-2.750;2022-10-16T17:16:13;17.30;71.70
75621;DHT22;64208;48.506;-2.750;2022-10-16T17:18:39;17.30;71.70
75621;DHT22;64208;48.506;-2.750;2022-10-16T17:21:07;17.30;71.70
75621;DHT22;64208;48.506;-2.750;2022-10-16T17:23:34;17.30;71.80
75621;DHT22;64208;48.506;-2.750;2022-10-16T17:26:12;17.40;71.80
75621;DHT22;64208;48.506;-2.750;2022-10-16T17:28:38;17.30;71.80
75621;DHT22;64208;48.506;-2.750;2022-10-16T17:33:37;17.20;72.50
75621;DHT22;64208;48.506;-2.750;2022-10-16T17:36:03;17.20;72.60
75621;DHT22;64208;48.506;-2.750;2022-10-16T17:38:29;17.20;72.70
75621;DHT22;64208;48.506;-2.750;2022-10-16T17:40:54;17.20;72.70